createdAt,value
2019-04-28T00:01:56.977Z,10.60
2019-04-28T00:04:23.729Z,10.90
2019-04-28T00:06:53.319Z,10.80
2019-04-28T00:09:21.265Z,10.20
2019-04-28T00:11:52.336Z,10.10
2019-04-28T00:14:22.750Z,10.30
2019-04-28T00:16:52.690Z,10.20
2019-04-28T00:19:20.889Z,10.20
2019-04-28T00:21:51.784Z,9.80
2019-04-28T00:24:21.093Z,9.60
2019-04-28T00:26:48.894Z,9.80
2019-04-28T00:29:18.594Z,10.00
2019-04-28T00:31:48.936Z,10.30
2019-04-28T00:34:15.490Z,10.50
2019-04-28T00:36:45.666Z,10.00
2019-04-28T00:39:13.660Z,10.10
2019-04-28T00:41:42.322Z,10.30
2019-04-28T00:44:11.912Z,10.40
2019-04-28T00:46:38.773Z,10.40
2019-04-28T00:49:12.255Z,10.00
2019-04-28T00:51:42.603Z,9.80
2019-04-28T00:54:12.149Z,9.80
2019-04-28T00:56:38.991Z,9.40
2019-04-28T00:59:06.657Z,9.40
2019-04-28T01:01:33.282Z,9.70
2019-04-28T01:04:02.066Z,9.80
2019-04-28T01:06:32.136Z,10.30
2019-04-28T01:09:01.408Z,10.10
2019-04-28T01:11:31.226Z,10.30
2019-04-28T01:13:59.319Z,10.10
2019-04-28T01:16:25.939Z,10.50
2019-04-28T01:18:54.034Z,10.10
2019-04-28T01:21:21.354Z,10.60
2019-04-28T01:23:50.086Z,10.60
2019-04-28T01:26:16.529Z,10.60
2019-04-28T01:28:43.403Z,10.40
2019-04-28T01:31:10.946Z,10.20
2019-04-28T01:33:41.181Z,10.60
2019-04-28T01:36:11.407Z,10.50
2019-04-28T01:38:42.061Z,10.80
2019-04-28T01:41:11.701Z,10.30
2019-04-28T01:43:43.574Z,10.30
2019-04-28T01:46:10.465Z,10.10
2019-04-28T01:48:39.756Z,9.20
2019-04-28T01:51:06.393Z,9.30
2019-04-28T01:53:34.021Z,9.80
2019-04-28T01:56:02.058Z,9.90
2019-04-28T01:58:30.823Z,10.10
2019-04-28T02:01:01.209Z,10.20
2019-04-28T02:03:28.015Z,10.00
2019-04-28T02:06:00.078Z,10.40
2019-04-28T02:08:25.255Z,10.10
2019-04-28T02:10:52.859Z,10.10
2019-04-28T02:13:22.985Z,10.10
2019-04-28T02:15:53.190Z,9.80
2019-04-28T02:18:21.116Z,9.90
2019-04-28T02:20:49.351Z,9.80
2019-04-28T02:23:16.411Z,9.80
2019-04-28T02:25:43.026Z,9.70
2019-04-28T02:28:12.048Z,10.00
2019-04-28T02:30:47.796Z,10.20
2019-04-28T02:33:13.545Z,10.30
2019-04-28T02:35:44.876Z,10.20
2019-04-28T02:38:12.595Z,10.20
2019-04-28T02:40:40.541Z,10.20
2019-04-28T02:43:07.789Z,10.00
2019-04-28T02:45:34.431Z,9.90
2019-04-28T02:48:03.856Z,9.70
2019-04-28T02:50:34.528Z,9.60
2019-04-28T02:53:01.853Z,9.70
2019-04-28T02:55:31.793Z,9.70
2019-04-28T03:01:02.709Z,9.60
2019-04-28T03:03:21.114Z,9.60
2019-04-28T03:05:51.015Z,9.60
2019-04-28T03:08:23.153Z,9.50
2019-04-28T03:10:50.852Z,9.50
2019-04-28T03:13:20.664Z,9.60
2019-04-28T03:15:51.267Z,9.70
2019-04-28T03:18:17.313Z,9.90
2019-04-28T03:20:44.910Z,9.70
2019-04-28T03:23:12.610Z,9.70
2019-04-28T03:25:41.343Z,9.70
2019-04-28T03:28:11.998Z,9.70
2019-04-28T03:30:43.840Z,9.80
2019-04-28T03:33:18.103Z,9.30
2019-04-28T03:35:43.851Z,9.60
2019-04-28T03:38:10.864Z,9.90
2019-04-28T03:40:41.593Z,9.70
2019-04-28T03:43:14.324Z,9.50
2019-04-28T03:45:41.024Z,9.40
2019-04-28T03:48:07.984Z,9.50
2019-04-28T03:50:34.568Z,9.50
2019-04-28T03:53:05.226Z,9.60
2019-04-28T03:55:34.931Z,9.70
2019-04-28T03:58:01.705Z,9.50
2019-04-28T04:00:31.162Z,9.50
2019-04-28T04:03:00.786Z,9.40
2019-04-28T04:05:30.615Z,9.40
2019-04-28T04:07:57.482Z,9.20
2019-04-28T04:10:24.815Z,9.10
2019-04-28T04:12:51.724Z,9.10
2019-04-28T04:15:21.370Z,9.40
2019-04-28T04:17:50.941Z,9.50
2019-04-28T04:20:16.100Z,9.30
2019-04-28T04:22:44.428Z,9.30
2019-04-28T04:25:13.520Z,9.40
2019-04-28T04:27:42.331Z,9.70
2019-04-28T04:30:37.735Z,9.40
2019-04-28T04:32:56.967Z,10.00
2019-04-28T04:35:24.651Z,10.20
2019-04-28T04:41:03.136Z,10.90
2019-04-28T04:43:21.063Z,10.10
2019-04-28T04:45:50.118Z,10.60
2019-04-28T04:48:16.949Z,10.70
2019-04-28T04:50:43.528Z,11.30
2019-04-28T04:53:11.035Z,11.70
2019-04-28T04:55:40.567Z,11.50
2019-04-28T04:58:10.713Z,11.30
2019-04-28T05:00:40.454Z,11.30
2019-04-28T05:03:07.600Z,11.30
2019-04-28T05:05:36.300Z,10.80
2019-04-28T05:08:03.194Z,10.50
2019-04-28T05:10:32.183Z,10.70
2019-04-28T05:13:02.389Z,10.90
2019-04-28T05:15:30.403Z,11.50
2019-04-28T05:18:00.869Z,11.60
2019-04-28T05:20:27.462Z,12.00
2019-04-28T05:22:56.670Z,12.20
2019-04-28T05:25:28.487Z,12.20
2019-04-28T05:27:54.519Z,12.10
2019-04-28T05:30:21.715Z,11.90
2019-04-28T05:32:56.056Z,12.30
2019-04-28T05:35:23.111Z,12.80
2019-04-28T05:37:49.522Z,12.90
2019-04-28T05:40:18.204Z,12.60
2019-04-28T05:42:49.730Z,12.30
2019-04-28T05:45:17.638Z,12.10
2019-04-28T05:47:50.176Z,12.40
2019-04-28T05:50:19.663Z,13.00
2019-04-28T05:52:50.196Z,13.20
2019-04-28T05:55:15.580Z,13.50
2019-04-28T05:57:43.412Z,13.70
2019-04-28T06:00:11.239Z,13.90
2019-04-28T06:02:39.671Z,13.90
2019-04-28T06:05:10.075Z,14.20
2019-04-28T06:07:40.538Z,13.90
2019-04-28T06:10:10.145Z,13.80
2019-04-28T06:12:40.400Z,13.70
2019-04-28T06:15:11.753Z,13.50
2019-04-28T06:17:41.154Z,13.40
2019-04-28T06:20:07.844Z,13.40
2019-04-28T06:22:34.434Z,13.20
2019-04-28T06:25:01.460Z,12.70
2019-04-28T06:27:32.663Z,12.60
2019-04-28T06:30:05.375Z,12.60
2019-04-28T06:32:34.273Z,12.50
2019-04-28T06:35:03.189Z,13.20
2019-04-28T06:37:33.114Z,12.70
2019-04-28T06:40:08.809Z,13.20
2019-04-28T06:42:38.722Z,13.00
2019-04-28T06:45:05.396Z,13.10
2019-04-28T06:47:32.175Z,13.10
2019-04-28T06:50:07.372Z,12.80
2019-04-28T06:52:29.818Z,12.90
2019-04-28T06:54:56.684Z,12.70
2019-04-28T06:57:25.655Z,13.40
2019-04-28T06:59:57.777Z,13.40
2019-04-28T07:02:37.630Z,13.10
2019-04-28T07:05:02.035Z,12.70
2019-04-28T07:07:29.689Z,13.00
2019-04-28T07:12:59.976Z,13.50
2019-04-28T07:15:20.199Z,14.00
2019-04-28T07:17:48.117Z,13.70
2019-04-28T07:20:17.723Z,13.50
2019-04-28T07:22:52.397Z,13.30
2019-04-28T07:25:17.894Z,13.90
2019-04-28T07:27:51.733Z,14.60
2019-04-28T07:30:25.599Z,14.50
2019-04-28T07:32:56.290Z,14.80
2019-04-28T07:35:23.237Z,14.80
2019-04-28T07:37:49.922Z,14.50
2019-04-28T07:40:21.863Z,15.00
2019-04-28T07:42:51.890Z,15.60
2019-04-28T07:45:19.415Z,15.70
2019-04-28T07:47:48.122Z,15.10
2019-04-28T07:50:17.750Z,14.80
2019-04-28T07:52:44.718Z,14.80
2019-04-28T07:55:11.355Z,14.90
2019-04-28T07:57:38.129Z,15.10
2019-04-28T08:00:07.368Z,15.20
2019-04-28T08:02:35.229Z,15.00
2019-04-28T08:05:03.858Z,14.90
2019-04-28T08:07:30.577Z,15.10
2019-04-28T08:09:57.162Z,14.80
2019-04-28T08:12:24.036Z,14.80
2019-04-28T08:14:50.659Z,14.70
2019-04-28T08:17:17.638Z,14.70
2019-04-28T08:19:44.187Z,15.00
2019-04-28T08:22:10.803Z,14.80
2019-04-28T08:24:37.406Z,15.10
2019-04-28T08:27:04.095Z,15.20
2019-04-28T08:29:30.972Z,15.30
2019-04-28T08:31:57.604Z,15.10
2019-04-28T08:34:25.745Z,15.00
2019-04-28T08:36:52.354Z,15.00
2019-04-28T08:39:18.949Z,14.90
2019-04-28T08:41:47.233Z,15.30
2019-04-28T08:44:14.002Z,15.30
2019-04-28T08:46:40.848Z,15.00
2019-04-28T08:49:07.656Z,15.00
2019-04-28T08:51:37.155Z,14.80
2019-04-28T08:54:03.763Z,14.60
2019-04-28T08:56:32.430Z,14.70
2019-04-28T08:59:00.954Z,14.50
2019-04-28T09:01:27.635Z,14.40
2019-04-28T09:03:56.543Z,14.50
2019-04-28T09:06:23.358Z,15.00
2019-04-28T09:08:50.574Z,15.00
2019-04-28T09:11:20.665Z,15.70
2019-04-28T09:13:47.232Z,15.80
2019-04-28T09:16:14.030Z,16.20
2019-04-28T09:18:41.886Z,16.60
2019-04-28T09:21:10.532Z,16.40
2019-04-28T09:23:37.470Z,15.50
2019-04-28T09:26:08.040Z,15.80
2019-04-28T09:28:34.615Z,16.00
2019-04-28T09:31:01.239Z,16.20
2019-04-28T09:33:30.325Z,16.50
2019-04-28T09:35:59.849Z,16.60
2019-04-28T09:38:26.455Z,15.60
2019-04-28T09:40:53.026Z,15.30
2019-04-28T09:43:19.654Z,15.80
2019-04-28T09:45:46.528Z,16.10
2019-04-28T09:48:13.109Z,16.50
2019-04-28T09:50:42.227Z,16.00
2019-04-28T09:53:08.829Z,16.60
2019-04-28T09:55:38.260Z,16.90
2019-04-28T09:58:07.350Z,16.50
2019-04-28T10:00:34.407Z,15.80
2019-04-28T10:03:05.097Z,16.40
2019-04-28T10:05:31.987Z,16.70
2019-04-28T10:07:59.453Z,16.90
2019-04-28T10:10:28.842Z,16.70
2019-04-28T10:12:57.549Z,16.40
2019-04-28T10:15:24.885Z,16.50
2019-04-28T10:17:51.475Z,17.00
2019-04-28T10:20:18.126Z,17.10
2019-04-28T10:22:45.736Z,17.50
2019-04-28T10:25:14.735Z,17.70
2019-04-28T10:27:43.239Z,16.80
2019-04-28T10:30:11.922Z,17.00
2019-04-28T10:32:41.253Z,16.70
2019-04-28T10:35:09.904Z,16.60
2019-04-28T10:37:39.861Z,16.30
2019-04-28T10:40:06.474Z,16.70
2019-04-28T10:42:33.379Z,16.90
2019-04-28T10:45:00.019Z,17.00
2019-04-28T10:47:26.608Z,17.00
2019-04-28T10:49:53.213Z,16.80
2019-04-28T10:52:20.102Z,16.80
2019-04-28T10:54:46.968Z,17.10
2019-04-28T10:57:13.587Z,17.70
2019-04-28T10:59:40.180Z,17.60
2019-04-28T11:02:06.895Z,17.30
2019-04-28T11:04:33.505Z,16.90
2019-04-28T11:07:00.092Z,17.00
2019-04-28T11:09:30.682Z,17.10
2019-04-28T11:11:55.011Z,17.40
2019-04-28T11:14:21.601Z,18.00
2019-04-28T11:16:48.209Z,17.20
2019-04-28T11:19:14.951Z,17.40
2019-04-28T11:21:41.554Z,17.80
2019-04-28T11:24:08.148Z,18.10
2019-04-28T11:26:35.038Z,18.40
2019-04-28T11:29:01.927Z,18.00
2019-04-28T11:31:28.507Z,17.10
2019-04-28T11:33:55.119Z,17.10
2019-04-28T11:36:21.846Z,17.60
2019-04-28T11:38:48.699Z,17.50
2019-04-28T11:41:15.335Z,17.10
2019-04-28T11:43:43.161Z,17.50
2019-04-28T11:46:09.746Z,16.80
2019-04-28T11:48:36.416Z,16.30
2019-04-28T11:51:03.001Z,16.90
2019-04-28T11:53:29.592Z,17.10
2019-04-28T11:55:57.288Z,17.20
2019-04-28T11:58:23.870Z,17.30
2019-04-28T12:00:50.470Z,17.50
2019-04-28T12:03:17.742Z,17.90
2019-04-28T12:05:44.579Z,17.80
2019-04-28T12:08:14.079Z,18.50
2019-04-28T12:10:41.041Z,17.80
2019-04-28T12:13:07.966Z,17.20
2019-04-28T12:15:34.820Z,18.00
2019-04-28T12:18:01.783Z,18.20
2019-04-28T12:20:28.645Z,18.10
2019-04-28T12:22:55.234Z,18.20
2019-04-28T12:25:23.612Z,17.30
2019-04-28T12:27:52.507Z,17.80
2019-04-28T12:30:21.700Z,18.40
2019-04-28T12:32:48.087Z,18.90
2019-04-28T12:35:18.436Z,17.90
2019-04-28T12:37:43.340Z,17.60
2019-04-28T12:40:12.143Z,17.80
2019-04-28T12:42:39.980Z,17.50
2019-04-28T12:45:09.301Z,17.40
2019-04-28T12:47:40.218Z,17.40
2019-04-28T12:50:07.145Z,17.60
2019-04-28T12:52:34.036Z,18.40
2019-04-28T12:55:03.353Z,18.20
2019-04-28T12:57:31.495Z,18.20
2019-04-28T12:59:59.647Z,17.80
2019-04-28T13:02:28.838Z,18.00
2019-04-28T13:04:58.336Z,18.50
2019-04-28T13:07:25.189Z,19.00
2019-04-28T13:09:53.119Z,20.00
2019-04-28T13:12:22.526Z,19.70
2019-04-28T13:14:49.372Z,19.70
2019-04-28T13:17:24.317Z,19.10
2019-04-28T13:19:49.687Z,18.20
2019-04-28T13:22:16.608Z,18.00
2019-04-28T13:24:46.116Z,18.20
2019-04-28T13:27:12.911Z,18.80
2019-04-28T13:29:39.752Z,18.60
2019-04-28T13:32:07.638Z,18.30
2019-04-28T13:34:34.522Z,18.80
2019-04-28T13:37:02.593Z,19.50
2019-04-28T13:39:32.816Z,19.20
2019-04-28T13:42:01.986Z,19.30
2019-04-28T13:44:28.844Z,18.30
2019-04-28T13:46:59.758Z,18.20
2019-04-28T13:49:29.079Z,18.50
2019-04-28T13:51:55.161Z,19.20
2019-04-28T13:54:25.866Z,19.10
2019-04-28T13:56:53.819Z,19.10
2019-04-28T13:59:24.067Z,19.40
2019-04-28T14:01:50.941Z,19.90
2019-04-28T14:04:20.376Z,19.50
2019-04-28T14:06:49.191Z,19.60
2019-04-28T14:09:16.744Z,19.70
2019-04-28T14:11:44.953Z,19.50
2019-04-28T14:14:15.596Z,20.30
2019-04-28T14:16:46.258Z,20.10
2019-04-28T14:19:17.080Z,20.10
2019-04-28T14:21:43.952Z,21.00
2019-04-28T14:24:10.874Z,21.00
2019-04-28T14:26:40.338Z,20.60
2019-04-28T14:29:10.012Z,21.50
2019-04-28T14:31:43.861Z,21.60
2019-04-28T14:34:12.010Z,21.60
2019-04-28T14:36:45.462Z,21.00
2019-04-28T14:39:14.763Z,19.90
2019-04-28T14:41:41.881Z,20.30
2019-04-28T14:44:12.881Z,20.80
2019-04-28T14:46:40.080Z,20.30
2019-04-28T14:49:10.010Z,20.20
2019-04-28T14:51:41.240Z,20.10
2019-04-28T14:54:18.288Z,20.30
2019-04-28T14:56:44.657Z,20.00
2019-04-28T14:59:15.545Z,20.10
2019-04-28T15:01:43.567Z,20.00
2019-04-28T15:04:14.611Z,19.80
2019-04-28T15:06:55.124Z,19.40
2019-04-28T15:09:14.063Z,19.50
2019-04-28T15:11:40.936Z,19.40
2019-04-28T15:14:09.518Z,19.00
2019-04-28T15:16:38.242Z,19.00
2019-04-28T15:19:05.192Z,19.10
2019-04-28T15:21:32.049Z,18.60
2019-04-28T15:24:01.437Z,18.20
2019-04-28T15:26:28.614Z,17.90
2019-04-28T15:28:57.779Z,18.00
2019-04-28T15:31:26.025Z,18.30
2019-04-28T15:33:55.410Z,18.30
2019-04-28T15:36:24.545Z,18.40
2019-04-28T15:38:53.670Z,18.80
2019-04-28T15:41:24.093Z,18.80
2019-04-28T15:43:51.199Z,18.60
2019-04-28T15:46:20.475Z,18.40
2019-04-28T15:48:47.251Z,18.30
2019-04-28T15:51:16.514Z,17.80
2019-04-28T15:53:45.142Z,17.00
2019-04-28T15:56:14.986Z,17.10
2019-04-28T15:58:43.904Z,16.80
2019-04-28T16:01:12.938Z,16.60
2019-04-28T16:03:43.319Z,16.80
2019-04-28T16:06:13.012Z,17.00
2019-04-28T16:08:42.371Z,17.10
2019-04-28T16:11:10.298Z,17.30
2019-04-28T16:13:38.615Z,17.60
2019-04-28T16:16:08.731Z,17.50
2019-04-28T16:18:37.126Z,17.10
2019-04-28T16:21:04.000Z,17.30
2019-04-28T16:23:33.274Z,17.50
2019-04-28T16:26:00.136Z,17.10
2019-04-28T16:28:26.868Z,16.70
2019-04-28T16:30:57.678Z,16.90
2019-04-28T16:33:24.831Z,17.00
2019-04-28T16:35:51.562Z,17.20
2019-04-28T16:38:21.934Z,17.00
2019-04-28T16:40:48.548Z,17.00
2019-04-28T16:43:15.603Z,16.80
2019-04-28T16:45:42.982Z,16.80
2019-04-28T16:48:10.205Z,16.90
2019-04-28T16:50:37.118Z,16.80
2019-04-28T16:53:05.546Z,16.70
2019-04-28T16:55:34.691Z,17.00
2019-04-28T16:58:02.619Z,16.90
2019-04-28T17:00:33.430Z,16.90
2019-04-28T17:03:00.056Z,16.70
2019-04-28T17:05:28.643Z,16.70
2019-04-28T17:07:55.027Z,16.70
2019-04-28T17:10:22.212Z,16.40
2019-04-28T17:12:51.284Z,16.30
2019-04-28T17:15:19.552Z,16.50
2019-04-28T17:17:48.397Z,16.40
2019-04-28T17:20:14.990Z,16.20
2019-04-28T17:22:45.438Z,16.40
2019-04-28T17:25:17.480Z,16.40
2019-04-28T17:27:43.074Z,16.20
2019-04-28T17:30:09.769Z,16.00
2019-04-28T17:32:37.518Z,15.80
2019-04-28T17:35:12.560Z,15.80
2019-04-28T17:37:37.692Z,15.80
2019-04-28T17:40:04.807Z,15.60
2019-04-28T17:42:32.426Z,15.80
2019-04-28T17:45:02.044Z,15.60
2019-04-28T17:47:33.295Z,15.40
2019-04-28T17:50:00.879Z,15.20
2019-04-28T17:52:30.063Z,15.20
2019-04-28T17:54:56.749Z,15.20
2019-04-28T17:57:23.337Z,15.30
2019-04-28T17:59:55.819Z,15.10
2019-04-28T18:02:24.621Z,15.00
2019-04-28T18:04:53.244Z,15.00
2019-04-28T18:07:27.027Z,14.60
2019-04-28T18:09:53.706Z,14.60
2019-04-28T18:12:28.633Z,14.70
2019-04-28T18:14:58.453Z,15.00
2019-04-28T18:17:26.448Z,15.10
2019-04-28T18:19:53.075Z,14.90
2019-04-28T18:22:22.589Z,14.70
2019-04-28T18:24:49.888Z,14.50
2019-04-28T18:27:16.510Z,14.70
2019-04-28T18:29:43.123Z,14.80
2019-04-28T18:32:13.789Z,14.90
2019-04-28T18:34:42.234Z,14.00
2019-04-28T18:37:12.277Z,14.10
2019-04-28T18:39:44.475Z,14.30
2019-04-28T18:42:11.281Z,14.40
2019-04-28T18:44:40.178Z,14.20
2019-04-28T18:47:06.484Z,14.20
2019-04-28T18:49:33.269Z,14.40
2019-04-28T18:51:59.973Z,14.50
2019-04-28T18:54:27.881Z,14.10
2019-04-28T18:56:54.468Z,14.20
2019-04-28T18:59:24.406Z,14.30
2019-04-28T19:01:52.149Z,14.30
2019-04-28T19:04:19.839Z,14.10
2019-04-28T19:06:46.914Z,13.60
2019-04-28T19:09:14.551Z,13.90
2019-04-28T19:11:41.450Z,14.10
2019-04-28T19:14:08.474Z,13.60
2019-04-28T19:16:35.984Z,14.00
2019-04-28T19:19:03.872Z,13.60
2019-04-28T19:21:31.449Z,13.80
2019-04-28T19:23:58.087Z,13.80
2019-04-28T19:26:25.690Z,14.30
2019-04-28T19:28:55.308Z,14.50
2019-04-28T19:31:32.957Z,14.60
2019-04-28T19:34:00.497Z,14.00
2019-04-28T19:36:28.370Z,13.90
2019-04-28T19:39:02.968Z,14.00
2019-04-28T19:41:23.589Z,13.60
2019-04-28T19:43:50.259Z,13.30
2019-04-28T19:46:16.816Z,13.60
2019-04-28T19:48:43.685Z,13.90
2019-04-28T19:51:10.317Z,14.10
2019-04-28T19:53:37.173Z,14.40
2019-04-28T19:56:04.477Z,14.10
2019-04-28T19:58:31.104Z,14.00
2019-04-28T20:00:57.960Z,13.50
2019-04-28T20:03:24.673Z,13.00
2019-04-28T20:05:52.151Z,13.50
2019-04-28T20:08:18.905Z,13.90
2019-04-28T20:10:45.790Z,13.10
2019-04-28T20:13:12.426Z,13.60
2019-04-28T20:15:39.628Z,13.80
2019-04-28T20:18:08.333Z,13.90
2019-04-28T20:20:34.979Z,13.70
2019-04-28T20:23:03.777Z,13.60
2019-04-28T20:25:30.400Z,13.90
2019-04-28T20:27:57.731Z,13.80
2019-04-28T20:30:24.320Z,13.70
2019-04-28T20:32:50.928Z,13.50
2019-04-28T20:35:17.610Z,13.30
2019-04-28T20:37:44.474Z,13.40
2019-04-28T20:40:11.077Z,13.90
2019-04-28T20:42:38.073Z,13.50
2019-04-28T20:45:04.665Z,13.90
2019-04-28T20:47:32.768Z,14.10
2019-04-28T20:49:59.470Z,13.60
2019-04-28T20:52:26.062Z,13.40
2019-04-28T20:54:52.973Z,13.70
2019-04-28T20:57:20.044Z,13.90
2019-04-28T20:59:46.805Z,13.50
2019-04-28T21:02:13.682Z,13.60
2019-04-28T21:04:40.339Z,13.70
2019-04-28T21:07:07.011Z,13.40
2019-04-28T21:09:33.667Z,13.60
2019-04-28T21:12:00.561Z,13.30
2019-04-28T21:14:27.654Z,13.60
2019-04-28T21:16:54.673Z,13.60
2019-04-28T21:19:21.273Z,13.70
2019-04-28T21:21:48.130Z,14.10
2019-04-28T21:24:16.912Z,14.10
2019-04-28T21:26:43.347Z,14.10
2019-04-28T21:29:09.996Z,12.90
2019-04-28T21:31:36.639Z,12.80
2019-04-28T21:34:03.257Z,13.20
2019-04-28T21:36:30.054Z,13.10
2019-04-28T21:38:56.970Z,13.20
2019-04-28T21:41:23.597Z,12.80
2019-04-28T21:43:50.183Z,12.60
2019-04-28T21:46:17.095Z,13.10
2019-04-28T21:48:44.000Z,12.50
2019-04-28T21:51:12.061Z,12.50
2019-04-28T21:53:40.416Z,12.90
2019-04-28T21:56:07.039Z,13.10
2019-04-28T21:58:33.840Z,13.10
2019-04-28T22:01:00.661Z,12.90
2019-04-28T22:03:27.310Z,12.90
2019-04-28T22:05:54.146Z,13.30
2019-04-28T22:08:20.891Z,12.80
2019-04-28T22:10:47.694Z,13.10
2019-04-28T22:13:14.463Z,12.40
2019-04-28T22:15:41.531Z,12.40
2019-04-28T22:18:08.830Z,12.60
2019-04-28T22:20:35.448Z,12.70
2019-04-28T22:23:02.348Z,12.60
2019-04-28T22:25:29.375Z,12.70
2019-04-28T22:27:57.269Z,12.70
2019-04-28T22:30:24.108Z,12.70
2019-04-28T22:32:51.857Z,12.40
2019-04-28T22:35:18.734Z,12.20
2019-04-28T22:37:45.635Z,12.10
2019-04-28T22:40:16.713Z,12.10
2019-04-28T22:42:44.604Z,12.30
2019-04-28T22:45:11.459Z,12.10
2019-04-28T22:47:40.438Z,11.80
2019-04-28T22:50:07.605Z,11.60
2019-04-28T22:52:36.162Z,12.00
2019-04-28T22:55:03.160Z,11.70
2019-04-28T22:57:31.533Z,11.60
2019-04-28T23:00:00.413Z,11.80
2019-04-28T23:02:29.124Z,12.10
2019-04-28T23:04:55.975Z,11.80
2019-04-28T23:07:24.073Z,11.90
2019-04-28T23:09:52.822Z,11.80
2019-04-28T23:12:19.403Z,12.00
2019-04-28T23:14:48.213Z,11.90
2019-04-28T23:17:18.471Z,11.30
2019-04-28T23:19:45.063Z,11.50
2019-04-28T23:22:14.082Z,11.20
2019-04-28T23:24:43.352Z,11.10
2019-04-28T23:27:10.343Z,11.50
2019-04-28T23:29:37.001Z,11.50
2019-04-28T23:32:07.955Z,11.40
2019-04-28T23:34:35.111Z,11.20
2019-04-28T23:37:02.272Z,11.30
2019-04-28T23:39:31.330Z,11.50
2019-04-28T23:41:57.927Z,11.70
2019-04-28T23:44:26.709Z,11.20
2019-04-28T23:46:56.230Z,11.40
2019-04-28T23:49:25.431Z,11.10
2019-04-28T23:51:52.157Z,11.10
2019-04-28T23:54:22.394Z,11.30
2019-04-28T23:56:51.320Z,10.80
2019-04-28T23:59:20.037Z,10.90
